Latest Weather Observations for Williamtown

IDN60801

Issued at 8:12 pm EDT Friday 23 October 2020 (issued every 10 minutes, with the page automatically refreshed every 10 minutes)

About weather observations | Map of weather stations | Latest weather observations for NSW | Other Formats
Station Details ID: 061078 Name: WILLIAMTOWN RAAF Lat: -32.79 Lon: 151.84 Height: 7.5 m
Data from the previous 72 hours. | See also: Recent months at Williamtown
Date/Time
EDT
Temp
°C
App
Temp
°C
Dew
Point
°C
Rel
Hum
%
Delta-T
°C
Wind Press
QNH
hPa
Press
MSL
hPa
Rain since
9am
mm
Dir  Spd
km/h
Gust
km/h
Spd
kts
Gust
kts
23/08:00pm 22.1 21.6 17.7 76 2.7 NE 17 28 9 15 1009.4 1009.3 0.0
23/07:30pm 22.6 21.5 17.7 74 3.0 NE 20 32 11 17 1009.2 1009.1 0.0
23/07:00pm 23.3 22.1 17.5 70 3.6 NE 20 32 11 17 1009.1 1009.0 0.0
23/06:30pm 24.1 22.3 17.8 68 3.9 NE 24 35 13 19 1008.6 1008.5 0.0
23/06:00pm 24.7 23.7 17.9 66 4.3 ENE 20 28 11 15 1008.3 1008.3 0.0
23/05:30pm 25.2 23.6 17.4 62 4.9 ENE 22 33 12 18 1008.5 1008.4 0.0
23/05:00pm 26.2 25.0 17.6 59 5.4 ENE 20 30 11 16 1008.6 1008.5 0.0
23/04:30pm 25.5 23.5 17.4 61 5.1 ENE 24 33 13 18 1008.6 1008.5 0.0
23/04:00pm 26.1 24.0 17.2 58 5.6 ENE 24 32 13 17 1008.8 1008.7 0.0
23/03:30pm 26.7 25.0 17.2 56 5.9 ENE 22 35 12 19 1009.5 1009.4 0.0
23/03:00pm 26.5 24.5 17.3 57 5.8 E 24 30 13 16 1010.0 1009.9 0.0
23/02:30pm 27.0 25.3 16.3 52 6.6 ENE 20 30 11 16 1010.5 1010.4 0.0
23/02:00pm 27.3 25.6 15.7 49 7.1 E 19 26 10 14 1010.7 1010.6 0.0
23/01:30pm 27.4 25.5 15.1 47 7.5 ENE 19 30 10 16 1010.9 1010.8 0.0
23/01:00pm 27.6 26.2 14.6 45 7.8 ENE 15 19 8 10 1011.3 1011.2 0.0
23/12:30pm 27.3 26.1 14.0 44 7.9 NNE 13 22 7 12 1011.7 1011.6 0.0
23/12:00pm 26.7 26.2 16.0 52 6.6 SE 13 22 7 12 1011.9 1011.8 0.0
23/11:30am 25.8 25.7 16.1 55 5.9 ESE 11 24 6 13 1012.6 1012.5 0.0
23/11:00am 25.1 24.9 15.7 56 5.7 WNW 11 19 6 10 1013.3 1013.2 0.0
23/10:30am 24.0 23.2 15.2 58 5.3 NW 13 17 7 9 1013.7 1013.6 0.0
23/10:00am 23.6 23.3 16.4 64 4.4 NNW 13 19 7 10 1013.9 1013.8 0.0
23/09:30am 22.0 22.1 16.5 71 3.3 NW 11 17 6 9 1014.2 1014.1 0.0
23/09:00am 20.8 21.3 16.6 77 2.5 NW 9 13 5 7 1014.1 1014.0 0.0
23/08:30am 19.7 20.1 16.3 81 2.0 N 9 13 5 7 1014.2 1014.1 0.0
23/08:00am 18.6 19.1 16.6 88 1.2 NNW 9 11 5 6 1014.1 1014.0 0.0
23/07:30am 17.7 18.1 16.4 92 0.8 N 9 11 5 6 1014.0 1013.9 0.0
23/07:00am 16.5 18.1 16.0 97 0.3 NE 2 11 1 6 1013.9 1013.8 0.0
23/06:30am 14.3 15.5 13.8 97 0.3 CALM 0 0 0 0 1014.0 1013.9 0.0
23/06:00am 14.7 16.0 14.2 97 0.3 CALM 0 0 0 0 1013.5 1013.4 0.0
23/05:30am 14.7 16.0 14.1 96 0.3 CALM 0 0 0 0 1013.2 1013.1 0.0
23/05:00am 13.9 13.4 12.8 93 0.6 WSW 7 9 4 5 1013.0 1012.9 0.0
23/04:30am 15.1 15.2 13.8 92 0.7 WNW 6 9 3 5 1012.5 1012.4 0.0
23/04:00am 17.3 17.3 16.2 93 0.7 NNE 11 17 6 9 1012.3 1012.2 0.0
23/03:30am 17.6 17.4 16.6 94 0.6 NNE 13 17 7 9 1012.4 1012.3 0.0
23/03:00am 17.5 16.9 16.7 95 0.5 NE 15 19 8 10 1012.7 1012.6 0.0
23/02:30am 17.4 17.9 16.6 95 0.5 NE 9 15 5 8 1013.8 1013.7 0.0
23/02:00am 17.3 19.0 16.2 93 0.7 ENE 2 7 1 4 1014.1 1014.0 0.0
23/01:30am 17.8 18.4 16.8 94 0.6 NE 9 13 5 7 1014.2 1014.1 0.0
23/01:00am 17.8 18.8 16.8 94 0.6 ENE 7 11 4 6 1014.6 1014.5 0.0
23/12:30am 17.9 18.5 16.8 93 0.7 NE 9 11 5 6 1014.8 1014.7 0.0
23/12:00am 18.1 18.8 17.0 93 0.7 ENE 9 11 5 6 1015.0 1014.9 0.0
 
Date/Time
EDT
Temp
°C
App
Temp
°C
Dew
Point
°C
Rel
Hum
%
Delta-T
°C
Wind Press
QNH
hPa
Press
MSL
hPa
Rain since
9am
mm
Dir  Spd
km/h
Gust
km/h
Spd
kts
Gust
kts
22/11:30pm 18.5 19.6 17.0 91 0.9 ENE 7 9 4 5 1015.2 1015.1 0.0
22/11:00pm 18.6 19.7 17.1 91 0.9 NE 7 11 4 6 1015.3 1015.2 0.0
22/10:30pm 18.6 19.6 16.9 90 1.0 NE 7 11 4 6 1015.4 1015.3 0.0
22/10:00pm 19.0 19.3 17.1 89 1.2 NE 11 13 6 7 1015.4 1015.3 0.0
22/09:30pm 19.3 19.3 17.3 88 1.2 ENE 13 17 7 9 1015.3 1015.2 0.0
22/09:00pm 19.5 19.4 16.9 85 1.6 ENE 13 17 7 9 1015.2 1015.1 0.0
22/08:30pm 19.9 19.8 16.9 83 1.8 ENE 13 17 7 9 1014.9 1014.8 0.0
22/08:00pm 20.4 20.7 17.0 81 2.1 ENE 11 15 6 8 1014.4 1014.3 0.0
22/07:30pm 20.8 20.4 17.2 80 2.2 ENE 15 20 8 11 1014.0 1013.9 0.0
22/07:00pm 21.3 19.9 17.1 77 2.6 ENE 20 26 11 14 1013.5 1013.4 0.0
22/06:30pm 22.0 20.6 16.9 73 3.1 ENE 20 28 11 15 1013.5 1013.4 0.0
22/06:00pm 23.0 21.7 17.2 70 3.6 ENE 20 28 11 15 1013.4 1013.3 0.0
22/05:30pm 22.9 19.9 16.7 68 3.8 ENE 28 37 15 20 1013.2 1013.1 0.0
22/05:00pm 23.3 20.4 16.1 64 4.4 ENE 26 35 14 19 1012.7 1012.6 0.0
22/04:30pm 23.9 21.1 15.4 59 5.1 ENE 24 35 13 19 1012.6 1012.5 0.0
22/04:00pm 24.4 21.4 14.8 55 5.7 E 24 33 13 18 1012.5 1012.4 0.0
22/03:30pm 25.5 23.2 14.6 51 6.5 E 20 35 11 19 1012.5 1012.4 0.0
22/03:00pm 25.7 24.7 14.5 50 6.7 ESE 13 20 7 11 1012.7 1012.6 0.0
22/02:30pm 24.9 23.5 14.4 52 6.2 E 15 26 8 14 1013.0 1012.9 0.0
22/02:00pm 24.9 22.5 14.4 52 6.2 SE 20 26 11 14 1013.3 1013.2 0.0
22/01:30pm 24.0 21.9 14.7 56 5.5 SE 19 24 10 13 1013.6 1013.5 0.0
22/01:00pm 23.5 21.5 15.0 59 5.1 ESE 19 22 10 12 1013.8 1013.7 0.0
22/12:30pm 24.5 25.1 15.7 58 5.3 WNW 7 17 4 9 1014.0 1013.9 0.0
22/12:00pm 24.5 24.4 14.9 55 5.7 SSW 9 15 5 8 1014.4 1014.3 0.0
22/11:30am 23.2 22.9 14.5 58 5.1 WNW 9 15 5 8 1014.9 1014.8 0.0
22/11:00am 23.1 23.4 14.9 60 4.9 NNW 7 13 4 7 1015.2 1015.1 0.0
22/10:30am 22.4 22.2 14.8 62 4.5 NNW 9 15 5 8 1015.4 1015.3 0.0
22/10:00am 21.1 20.5 14.5 66 3.9 N 11 13 6 7 1015.3 1015.2 0.0
22/09:30am 20.4 19.9 13.8 66 3.8 NNW 9 13 5 7 1015.3 1015.2 0.0
22/09:00am 20.4 20.4 14.3 68 3.5 NW 7 11 4 6 1015.2 1015.1 0.0
22/08:30am 18.6 19.3 14.5 77 2.4 N 4 9 2 5 1015.0 1014.9 0.0
22/08:00am 16.8 18.1 14.1 84 1.5 CALM 0 0 0 0 1014.9 1014.8 0.0
22/07:30am 15.3 16.5 13.8 91 0.8 CALM 0 2 0 1 1014.8 1014.7 0.0
22/07:00am 13.9 13.7 13.1 95 0.4 WNW 6 7 3 4 1014.6 1014.5 0.0
22/06:30am 12.8 13.4 12.0 95 0.4 CALM 0 0 0 0 1014.3 1014.2 0.0
22/06:00am 12.6 13.1 11.5 93 0.6 CALM 0 0 0 0 1013.8 1013.7 0.0
22/05:30am 13.2 12.6 11.8 91 0.7 NE 6 9 3 5 1013.5 1013.4 0.0
22/05:00am 13.8 14.6 12.7 93 0.6 CALM 0 0 0 0 1013.3 1013.2 0.0
22/04:30am 13.0 12.3 11.4 90 0.8 S 6 7 3 4 1013.1 1013.0 0.0
22/04:00am 13.6 13.8 11.7 88 1.0 WSW 2 6 1 3 1013.2 1013.1 0.0
22/03:30am 14.3 13.4 12.5 89 1.0 WNW 9 11 5 6 1013.2 1013.1 0.0
22/03:00am 14.5 15.0 11.7 83 1.5 CALM 0 0 0 0 1013.2 1013.1 0.0
22/02:30am 15.8 15.2 12.4 80 1.9 N 7 9 4 5 1013.4 1013.3 0.0
22/02:00am 16.8 15.5 12.5 76 2.4 NE 11 15 6 8 1013.6 1013.5 0.0
22/01:30am 17.0 15.4 12.7 76 2.4 NNE 13 19 7 10 1014.0 1013.9 0.0
22/01:00am 17.1 15.2 13.0 77 2.3 NE 15 19 8 10 1014.2 1014.1 0.0
22/12:30am 17.1 15.6 13.0 77 2.3 NE 13 20 7 11 1014.4 1014.3 0.0
22/12:00am 17.3 15.7 12.8 75 2.5 NE 13 17 7 9 1014.7 1014.6 0.0
 
Date/Time
EDT
Temp
°C
App
Temp
°C
Dew
Point
°C
Rel
Hum
%
Delta-T
°C
Wind Press
QNH
hPa
Press
MSL
hPa
Rain since
9am
mm
Dir  Spd
km/h
Gust
km/h
Spd
kts
Gust
kts
21/11:30pm 17.3 15.8 13.0 76 2.4 NE 13 19 7 10 1014.7 1014.6 0.0
21/11:00pm 17.5 16.0 13.0 75 2.5 NE 13 19 7 10 1014.8 1014.7 0.0
21/10:30pm 17.6 15.7 12.9 74 2.6 NE 15 20 8 11 1015.0 1014.9 0.0
21/10:00pm 17.8 15.5 12.9 73 2.7 NE 17 24 9 13 1015.0 1014.9 0.0
21/09:30pm 18.0 15.4 13.1 73 2.8 NE 19 28 10 15 1014.8 1014.7 0.0
21/09:00pm 18.1 16.2 13.0 72 2.9 NE 15 22 8 12 1014.7 1014.6 0.0
21/08:30pm 18.5 16.2 13.1 71 3.0 NE 17 28 9 15 1014.4 1014.3 0.0
21/08:00pm 18.8 16.1 13.0 69 3.3 NE 19 30 10 16 1014.1 1014.0 0.0
21/07:30pm 18.8 16.4 13.9 73 2.8 ENE 19 26 10 14 1014.0 1013.9 0.0
21/07:00pm 19.1 15.6 13.5 70 3.2 ENE 24 33 13 18 1013.6 1013.5 0.0
21/06:30pm 19.9 16.3 13.1 65 3.9 ENE 24 35 13 19 1013.6 1013.5 0.0
21/06:00pm 20.2 15.4 12.9 63 4.1 ENE 30 39 16 21 1013.5 1013.4 0.0
21/05:30pm 20.8 16.4 12.8 60 4.5 ENE 28 37 15 20 1013.5 1013.4 0.0
21/05:00pm 21.1 15.6 12.5 58 4.9 ENE 33 41 18 22 1013.3 1013.2 0.0
21/04:30pm 21.7 17.5 12.5 56 5.2 ENE 26 39 14 21 1013.5 1013.4 0.0
21/04:00pm 21.9 17.4 12.7 56 5.2 ENE 28 35 15 19 1013.9 1013.8 0.0
21/03:30pm 22.4 17.9 12.6 54 5.6 ENE 28 35 15 19 1014.2 1014.1 0.0
21/03:00pm 23.3 19.4 13.2 53 5.8 NE 26 35 14 19 1014.4 1014.3 0.0
21/02:30pm 23.7 20.3 13.6 53 5.9 ENE 24 33 13 18 1014.6 1014.5 0.0
21/02:00pm 24.6 21.9 13.5 50 6.5 NE 20 30 11 16 1014.8 1014.7 0.0
21/01:30pm 23.8 20.9 12.8 50 6.3 E 20 28 11 15 1015.1 1015.0 0.0
21/01:00pm 24.4 22.0 12.7 48 6.7 ENE 17 26 9 14 1015.4 1015.3 0.0
21/12:30pm 23.9 21.8 13.7 53 6.0 ENE 17 30 9 16 1015.8 1015.7 0.0
21/12:00pm 24.2 22.8 13.4 51 6.3 ESE 13 24 7 13 1016.3 1016.2 0.0
21/11:30am 22.6 19.7 12.3 52 5.8 ENE 19 28 10 15 1016.7 1016.6 0.0
21/11:00am 22.3 20.6 12.5 53 5.6 ENE 13 24 7 13 1017.1 1017.0 0.0
21/10:30am 21.6 18.5 12.2 55 5.3 NE 20 32 11 17 1017.3 1017.2 0.0
21/10:00am 21.0 18.0 12.7 59 4.7 ENE 20 28 11 15 1017.5 1017.4 0.0
21/09:30am 20.1 17.0 12.3 61 4.4 NE 20 30 11 16 1017.5 1017.4 0.0
21/09:00am 19.7 16.9 12.7 64 3.9 ENE 19 32 10 17 1017.3 1017.2 0.0
21/08:30am 19.3 17.3 12.8 66 3.7 ENE 15 24 8 13 1017.2 1017.1 0.0
21/08:00am 18.4 16.8 12.8 70 3.1 NE 13 20 7 11 1017.1 1017.0 0.0
21/07:30am 17.3 15.7 12.8 75 2.5 NE 13 20 7 11 1016.9 1016.8 0.0
21/07:00am 16.2 15.1 13.1 82 1.7 NE 11 15 6 8 1016.7 1016.6 0.0
21/06:30am 15.1 14.3 12.8 86 1.3 ENE 9 11 5 6 1016.7 1016.6 0.0
21/06:00am 15.0 14.1 12.5 85 1.4 NE 9 13 5 7 1016.3 1016.2 0.0
21/05:30am 15.2 14.1 13.1 87 1.2 NE 11 15 6 8 1016.1 1016.0 0.0
21/05:00am 14.6 13.8 12.8 89 1.0 NE 9 13 5 7 1015.9 1015.8 0.0
21/04:30am 14.5 13.3 12.7 89 1.0 ENE 11 15 6 8 1015.7 1015.6 0.0
21/04:00am 14.4 13.1 12.4 88 1.1 ENE 11 15 6 8 1015.7 1015.6 0.0
21/03:30am 14.9 12.9 12.8 87 1.2 ENE 15 19 8 10 1015.9 1015.8 0.0
21/03:00am 14.8 13.2 12.7 87 1.2 ENE 13 17 7 9 1016.1 1016.0 0.0
21/02:30am 15.0 13.0 12.7 86 1.3 E 15 19 8 10 1016.2 1016.1 0.0
21/02:00am 14.7 13.1 12.7 88 1.1 E 13 17 7 9 1016.5 1016.4 0.0
21/01:30am 14.7 13.8 12.7 88 1.1 E 9 11 5 6 1016.8 1016.7 0.0
21/01:00am 15.6 14.3 12.5 82 1.7 ENE 11 15 6 8 1017.1 1017.0 0.0
21/12:30am 16.1 15.2 12.7 80 1.9 ENE 9 11 5 6 1017.4 1017.3 0.0
21/12:00am 16.4 15.1 12.6 78 2.1 NE 11 13 6 7 1017.5 1017.4 0.0
 
Date/Time
EDT
Temp
°C
App
Temp
°C
Dew
Point
°C
Rel
Hum
%
Delta-T
°C
Wind Press
QNH
hPa
Press
MSL
hPa
Rain since
9am
mm
Dir  Spd
km/h
Gust
km/h
Spd
kts
Gust
kts
20/11:30pm 16.7 15.1 12.7 77 2.2 NE 13 17 7 9 1017.4 1017.3 0.0
20/11:00pm 16.9 15.2 12.6 76 2.4 NE 13 19 7 10 1017.6 1017.5 0.0
20/10:30pm 17.0 15.4 12.7 76 2.4 NNE 13 15 7 8 1017.8 1017.7 0.0
20/10:00pm 17.1 15.4 12.6 75 2.5 NE 13 20 7 11 1017.9 1017.8 0.0
20/09:30pm 17.4 15.8 12.9 75 2.5 NE 13 17 7 9 1018.0 1017.9 0.0
20/09:00pm 17.6 15.7 12.9 74 2.6 NE 15 20 8 11 1017.8 1017.7 0.0
20/08:30pm 17.6 16.1 13.1 75 2.5 ENE 13 19 7 10 1017.6 1017.5 0.0

Other formats

Comma delimited format used in spreadsheet applications
http://www.bom.gov.au/fwo/IDN60801/IDN60801.94776.axf

JavaScript Object Notation format (JSON) in row-major order
http://www.bom.gov.au/fwo/IDN60801/IDN60801.94776.json

Data quality

Most of these data are generated automatically and are frequently updated. Quality checks on data are not normally performed. It is possible for incorrect values to appear. Refer to information at About Latest Weather Observations and please check the disclaimer before using these data.